Terminal Aerodrome Forecast
Issued by NWS Amarillo, TX

Home | Current Version | Previous Version | Text Only | Print | Product List | Glossary On
Versions: 1 2 3 4 5 6 7 8 9 10 11 12 13 14 15 16 17 18
000
FTUS44 KAMA 260500
TAFAMA
TAF
KAMA 260520Z 2606/2706 19008KT P6SM SCT300
     FM261200 35017KT P6SM OVC012
      TEMPO 2612/2615 SCT012=

USA.gov is the U.S. government's official web portal to all federal, state and local government web resources and services.